Time;durP1;ratioP1;P1;durP2;ratioP2;P2;SDS_P1;SDS_P2;PMS_P1;PMS_P2;Temp;Humidity;BMP_temperature;BMP_pressure;BME280_temperature;BME280_humidity;BME280_pressure;Samples;Min_cycle;Max_cycle;Signal;HPM_P1;HPM_P2
2022/10/20 00:01:06;;;;;;;6.70;4.00;;;;;;;5.67;84.35;101614.41;4986473;28;20224;-81
2022/10/20 00:03:34;;;;;;;4.93;4.27;;;;;;;5.66;85.14;101610.03;4992487;28;20199;-83
2022/10/20 00:06:09;;;;;;;5.80;4.80;;;;;;;5.66;84.88;101602.09;4989273;28;20207;-82
2022/10/20 00:08:36;;;;;;;7.87;4.87;;;;;;;5.63;84.77;101608.31;4991851;28;20203;-85
2022/10/20 00:11:03;;;;;;;5.63;4.43;;;;;;;5.61;84.97;101598.69;4992326;28;20220;-83
2022/10/20 00:13:30;;;;;;;7.37;4.67;;;;;;;5.60;85.51;101605.75;4989770;28;20211;-83
2022/10/20 00:15:58;;;;;;;7.63;4.70;;;;;;;5.57;85.70;101593.50;4989943;28;20587;-83
2022/10/20 00:18:25;;;;;;;6.80;4.80;;;;;;;5.57;85.82;101595.28;4993760;28;20207;-84
2022/10/20 00:20:53;;;;;;;5.90;4.33;;;;;;;5.56;85.96;101596.19;4991583;28;20609;-81
2022/10/20 00:23:20;;;;;;;5.00;4.27;;;;;;;5.51;85.78;101583.13;4990894;28;20216;-81
2022/10/20 00:25:47;;;;;;;7.73;4.20;;;;;;;5.45;85.46;101579.75;4990549;28;20571;-82
2022/10/20 00:28:13;;;;;;;7.80;4.53;;;;;;;5.38;85.34;101586.97;4986452;28;20212;-84
2022/10/20 00:30:40;;;;;;;6.70;4.77;;;;;;;5.34;85.72;101576.56;4989714;28;20222;-82
2022/10/20 00:33:07;;;;;;;5.20;4.00;;;;;;;5.30;85.47;101574.91;4987977;28;20215;-82
2022/10/20 00:35:37;;;;;;;7.30;4.30;;;;;;;5.27;85.80;101569.69;4988977;28;20214;-83
2022/10/20 00:38:05;;;;;;;7.17;4.57;;;;;;;5.25;85.88;101572.38;4993357;28;20677;-83
2022/10/20 00:40:31;;;;;;;7.67;4.40;;;;;;;5.24;86.00;101571.50;4994263;28;20270;-83
2022/10/20 00:42:58;;;;;;;6.07;4.73;;;;;;;5.22;86.10;101557.47;4989855;28;20212;-82
2022/10/20 00:45:25;;;;;;;6.50;4.13;;;;;;;5.24;86.61;101560.06;4995932;28;20214;-82
2022/10/20 00:47:55;;;;;;;6.50;4.20;;;;;;;5.22;86.43;101552.19;4989426;28;20263;-82
2022/10/20 00:50:25;;;;;;;6.90;4.60;;;;;;;5.20;86.60;101542.56;4988398;28;20234;-82
2022/10/20 00:52:53;;;;;;;5.83;4.23;;;;;;;5.19;86.83;101538.22;4991110;28;20208;-82
2022/10/20 00:55:25;;;;;;;6.63;4.43;;;;;;;5.17;86.82;101543.56;4986393;28;20679;-82
2022/10/20 00:57:52;;;;;;;6.40;4.80;;;;;;;5.14;87.05;101538.34;4986978;28;20208;-83
2022/10/20 01:00:19;;;;;;;7.60;5.27;;;;;;;5.14;87.54;101542.75;4992483;28;20651;-83
2022/10/20 01:02:46;;;;;;;6.43;4.60;;;;;;;5.13;87.64;101539.25;4987706;28;20700;-83
2022/10/20 01:05:13;;;;;;;5.27;4.30;;;;;;;5.11;87.82;101537.56;4988010;28;20215;-80
2022/10/20 01:07:39;;;;;;;7.37;4.77;;;;;;;5.08;88.10;101533.22;4986208;28;20202;-82
2022/10/20 01:10:07;;;;;;;7.23;4.97;;;;;;;5.06;87.84;101531.53;4989268;28;20227;-83
2022/10/20 01:12:51;;;;;;;6.63;4.40;;;;;;;5.00;87.68;101529.94;4991141;28;20218;-84
2022/10/20 01:15:27;;;;;;;7.13;4.70;;;;;;;4.98;88.34;101530.88;4989039;28;20671;-83
2022/10/20 01:18:04;;;;;;;6.10;5.07;;;;;;;4.94;88.29;101523.94;4987652;28;20566;-83
2022/10/20 01:21:05;;;;;;;6.60;3.87;;;;;;;4.86;87.50;101525.00;4987346;28;20223;-81
2022/10/20 01:23:48;;;;;;;6.40;4.60;;;;;;;4.77;87.42;101517.31;4986400;28;20215;-84
2022/10/20 01:26:43;;;;;;;5.53;4.93;;;;;;;4.70;88.12;101509.59;4987968;28;20234;-84
2022/10/20 01:29:18;;;;;;;5.87;4.87;;;;;;;4.66;88.17;101508.78;4984348;28;20196;-83
2022/10/20 01:31:53;;;;;;;7.13;4.87;;;;;;;4.65;88.40;101509.72;4989353;28;20223;-82
2022/10/20 01:34:28;;;;;;;7.30;4.70;;;;;;;4.64;88.56;101510.63;4985125;28;20270;-82
2022/10/20 01:36:59;;;;;;;5.67;4.50;;;;;;;4.63;88.96;101510.66;4992742;28;20206;-80
2022/10/20 01:39:32;;;;;;;11.37;5.17;;;;;;;4.63;89.03;101513.31;4988586;28;20211;-81
2022/10/20 01:42:03;;;;;;;7.50;4.77;;;;;;;4.61;88.64;101507.19;4990744;28;20230;-82
2022/10/20 01:44:33;;;;;;;5.27;4.60;;;;;;;4.58;89.31;101502.00;4988992;28;20213;-81
2022/10/20 01:47:01;;;;;;;9.40;5.37;;;;;;;4.58;88.82;101496.72;4984998;28;20221;-82
2022/10/20 01:49:27;;;;;;;7.70;6.03;;;;;;;4.54;89.03;101499.44;4991727;28;20588;-81
2022/10/20 01:51:55;;;;;;;7.40;5.03;;;;;;;4.53;89.05;101504.75;4989323;28;20220;-81
2022/10/20 01:54:23;;;;;;;9.07;6.30;;;;;;;4.51;89.54;101501.28;4990939;28;20200;-81
2022/10/20 01:57:05;;;;;;;6.87;5.33;;;;;;;4.47;89.48;101495.22;4989415;28;20675;-81
2022/10/20 01:59:42;;;;;;;8.23;5.33;;;;;;;4.43;88.95;101484.78;4994229;28;20219;-81
2022/10/20 02:02:32;;;;;;;8.37;5.90;;;;;;;4.35;89.23;101479.69;4992061;28;20227;-81
2022/10/20 02:05:17;;;;;;;7.43;5.67;;;;;;;4.29;89.31;101474.59;4981875;28;20207;-82
2022/10/20 02:07:44;;;;;;;6.03;5.37;;;;;;;4.23;89.39;101471.22;4991015;28;20207;-81
2022/10/20 02:10:17;;;;;;;8.13;5.10;;;;;;;4.17;88.99;101472.22;4993435;28;20815;-80
2022/10/20 02:12:48;;;;;;;15.33;5.77;;;;;;;4.12;89.52;101472.31;4998888;28;20191;-81
2022/10/20 02:15:22;;;;;;;8.07;5.40;;;;;;;4.10;89.50;101473.28;4990201;28;20200;-81
2022/10/20 02:17:53;;;;;;;7.57;5.37;;;;;;;4.08;90.19;101459.28;4997448;28;20229;-82
2022/10/20 02:20:19;;;;;;;11.30;5.57;;;;;;;4.07;89.92;101466.31;4992148;28;20219;-81
2022/10/20 02:22:48;;;;;;;8.07;5.83;;;;;;;4.07;90.71;101465.44;5000882;28;20219;-81
2022/10/20 02:25:15;;;;;;;9.70;5.43;;;;;;;4.07;90.73;101458.41;4999885;28;20233;-82
2022/10/20 02:27:46;;;;;;;9.40;5.60;;;;;;;4.06;90.71;101443.50;4994939;28;20203;-81
2022/10/20 02:30:15;;;;;;;9.10;5.30;;;;;;;4.05;90.79;101462.84;4999914;28;20236;-81
2022/10/20 02:32:48;;;;;;;7.50;5.37;;;;;;;4.05;90.96;101452.28;4999198;28;20204;-81
2022/10/20 02:35:18;;;;;;;7.33;6.07;;;;;;;4.06;90.79;101442.63;5000127;28;20200;-81
2022/10/20 02:37:44;;;;;;;7.57;5.50;;;;;;;4.05;91.20;101444.38;4986188;28;20200;-81
2022/10/20 02:40:12;;;;;;;11.57;5.50;;;;;;;4.03;91.30;101433.00;4991700;28;20219;-81
2022/10/20 02:42:39;;;;;;;6.80;4.90;;;;;;;4.03;90.85;101443.56;4992816;28;20219;-81
2022/10/20 02:45:07;;;;;;;6.40;5.40;;;;;;;4.01;91.59;101437.44;5001097;28;20207;-82
2022/10/20 02:47:34;;;;;;;7.00;5.03;;;;;;;4.01;91.50;101433.94;4995273;28;20210;-81
2022/10/20 02:50:02;;;;;;;7.67;5.20;;;;;;;3.99;91.41;101428.72;4991265;28;20219;-82
2022/10/20 02:52:28;;;;;;;6.07;4.30;;;;;;;3.96;91.38;101418.22;4998904;28;20211;-81
2022/10/20 02:54:55;;;;;;;7.07;5.00;;;;;;;3.93;91.70;101418.34;4993072;28;20204;-81
2022/10/20 02:57:21;;;;;;;5.90;4.83;;;;;;;3.90;92.00;101413.13;4999980;28;20207;-79
2022/10/20 02:59:48;;;;;;;7.27;5.27;;;;;;;3.88;91.82;101412.31;4994751;28;20251;-82
2022/10/20 03:02:14;;;;;;;6.60;4.97;;;;;;;3.86;92.08;101414.09;4991997;28;20224;-82
2022/10/20 03:04:40;;;;;;;9.93;5.17;;;;;;;3.85;92.12;101404.47;4990019;28;20693;-82
2022/10/20 03:07:08;;;;;;;7.13;5.03;;;;;;;3.85;92.09;101404.47;4993034;28;20446;-81
2022/10/20 03:09:35;;;;;;;6.37;5.27;;;;;;;3.86;92.18;101408.81;4992524;28;20219;-82
2022/10/20 03:12:01;;;;;;;8.27;5.20;;;;;;;3.85;92.02;101404.47;4993916;28;20200;-82
2022/10/20 03:14:28;;;;;;;7.67;5.83;;;;;;;3.84;92.50;101402.72;4988069;28;20208;-82
2022/10/20 03:16:54;;;;;;;11.27;5.57;;;;;;;3.84;92.45;101402.72;4986301;28;20223;-82
2022/10/20 03:19:21;;;;;;;7.63;5.60;;;;;;;3.85;92.55;101396.56;4993003;28;20200;-82
2022/10/20 03:21:48;;;;;;;7.27;5.33;;;;;;;3.85;92.02;101404.47;4986085;28;20224;-83
2022/10/20 03:24:17;;;;;;;11.37;6.10;;;;;;;3.85;92.88;101399.19;4989185;28;20646;-83
2022/10/20 03:26:43;;;;;;;6.57;4.77;;;;;;;3.86;92.39;101395.66;4988727;28;20581;-82
2022/10/20 03:29:10;;;;;;;10.07;5.90;;;;;;;3.85;92.61;101393.91;4992775;28;20230;-82
2022/10/20 03:31:36;;;;;;;9.77;5.90;;;;;;;3.84;92.34;101387.78;4992788;28;20246;-82
2022/10/20 03:34:03;;;;;;;7.97;5.90;;;;;;;3.83;93.12;101385.19;4997474;28;20239;-83
2022/10/20 03:36:29;;;;;;;8.73;5.40;;;;;;;3.81;92.80;101384.34;4999748;28;20208;-82
2022/10/20 03:38:55;;;;;;;6.90;5.57;;;;;;;3.78;92.93;101379.16;4987898;28;20214;-84
2022/10/20 03:41:23;;;;;;;10.47;4.87;;;;;;;3.75;92.70;101377.47;4991003;28;20238;-80
2022/10/20 03:43:50;;;;;;;5.73;4.90;;;;;;;3.73;92.49;101367.88;4993205;28;20219;-81
2022/10/20 03:46:16;;;;;;;6.87;4.70;;;;;;;3.74;92.68;101377.50;4994436;28;20204;-81
2022/10/20 03:48:43;;;;;;;7.53;5.00;;;;;;;3.74;93.23;101380.16;4994138;28;20203;-83
2022/10/20 03:51:13;;;;;;;7.37;5.10;;;;;;;3.72;92.83;101374.03;4993381;28;20219;-82
2022/10/20 03:53:39;;;;;;;9.07;4.80;;;;;;;3.72;93.23;101363.50;4995117;28;20203;-82
2022/10/20 03:56:07;;;;;;;6.77;4.90;;;;;;;3.71;92.81;101365.28;4988691;28;20654;-82
2022/10/20 03:58:35;;;;;;;8.57;4.50;;;;;;;3.71;92.80;101365.28;5003699;28;20204;-82
2022/10/20 04:01:02;;;;;;;6.60;4.40;;;;;;;3.70;93.43;101360.91;4988925;28;20236;-81
2022/10/20 04:03:28;;;;;;;5.73;4.27;;;;;;;3.69;93.61;101366.22;4993723;28;20238;-83
2022/10/20 04:05:55;;;;;;;7.97;4.40;;;;;;;3.69;93.46;101361.81;4987650;28;20214;-82
2022/10/20 04:08:21;;;;;;;7.37;4.00;;;;;;;3.68;93.74;101359.22;4991235;28;20208;-84
2022/10/20 04:10:47;;;;;;;6.07;4.50;;;;;;;3.68;92.84;101359.22;4991052;28;20234;-81
2022/10/20 04:13:14;;;;;;;7.10;3.97;;;;;;;3.67;93.59;101344.31;4986798;28;20207;-82
2022/10/20 04:15:42;;;;;;;4.47;3.90;;;;;;;3.67;93.60;101346.94;4996952;28;20215;-81
2022/10/20 04:18:08;;;;;;;5.20;4.33;;;;;;;3.66;93.15;101346.06;4991971;28;20214;-83
2022/10/20 04:20:35;;;;;;;5.97;4.00;;;;;;;3.65;93.76;101336.44;4993126;28;20235;-83
2022/10/20 04:23:01;;;;;;;5.37;4.30;;;;;;;3.66;93.38;101324.13;4992152;28;20232;-83
2022/10/20 04:25:28;;;;;;;6.00;4.73;;;;;;;3.64;93.80;101316.25;4994149;28;20211;-83
2022/10/20 04:27:54;;;;;;;6.20;4.80;;;;;;;3.64;93.60;101310.13;4998423;28;20210;-83
2022/10/20 04:30:21;;;;;;;5.63;4.43;;;;;;;3.61;93.00;101308.44;4993584;28;20227;-82
2022/10/20 04:32:48;;;;;;;6.63;4.80;;;;;;;3.61;93.36;101299.66;4988779;28;20208;-82
2022/10/20 04:35:15;;;;;;;6.53;5.03;;;;;;;3.57;92.87;101296.25;4995733;28;20212;-83
2022/10/20 04:37:41;;;;;;;6.97;4.50;;;;;;;3.55;92.51;101290.16;4997150;28;20214;-83
2022/10/20 04:40:09;;;;;;;9.80;5.80;;;;;;;3.47;92.90;101287.69;4990310;28;20223;-81
2022/10/20 04:42:35;;;;;;;6.23;5.10;;;;;;;3.43;92.20;101285.16;5001713;28;20231;-82
2022/10/20 04:45:02;;;;;;;7.93;6.23;;;;;;;3.39;92.32;101294.94;4997666;28;20789;-84
2022/10/20 04:47:31;;;;;;;9.07;5.33;;;;;;;3.37;92.91;101293.22;4994562;28;20591;-83
2022/10/20 04:49:59;;;;;;;9.23;5.87;;;;;;;3.37;92.95;101295.88;4989163;28;20242;-82
2022/10/20 04:52:25;;;;;;;9.47;5.53;;;;;;;3.37;92.75;101293.22;4986394;28;20222;-81
2022/10/20 04:54:52;;;;;;;9.27;5.63;;;;;;;3.37;92.53;101291.47;4994463;28;20203;-83
2022/10/20 04:57:18;;;;;;;10.33;5.70;;;;;;;3.37;93.28;101282.69;4995411;28;20204;-83
2022/10/20 04:59:45;;;;;;;10.13;5.33;;;;;;;3.37;92.63;101275.66;4997270;28;20207;-82
2022/10/20 05:02:12;;;;;;;9.60;5.77;;;;;;;3.37;92.87;101272.16;4991320;28;20231;-83
2022/10/20 05:04:38;;;;;;;8.87;5.70;;;;;;;3.38;92.61;101277.41;4983248;28;20206;-83
2022/10/20 05:07:06;;;;;;;7.30;6.17;;;;;;;3.37;93.20;101273.03;4992236;28;20846;-82
2022/10/20 05:09:33;;;;;;;7.57;5.30;;;;;;;3.36;93.55;101275.72;4979841;28;20212;-83
2022/10/20 05:12:00;;;;;;;6.10;5.33;;;;;;;3.32;93.23;101272.28;4988445;28;20224;-82
2022/10/20 05:14:26;;;;;;;8.27;5.87;;;;;;;3.30;93.57;101262.69;4984282;28;20215;-81
2022/10/20 05:16:53;;;;;;;9.07;5.60;;;;;;;3.27;93.27;101253.06;4983863;28;20207;-82
2022/10/20 05:19:19;;;;;;;7.70;5.27;;;;;;;3.24;93.23;101254.91;4991528;28;20647;-82
2022/10/20 05:21:45;;;;;;;9.13;5.20;;;;;;;3.20;92.75;101256.78;4989647;28;20372;-84
2022/10/20 05:24:16;;;;;;;11.00;6.63;;;;;;;3.17;92.85;101246.31;4988064;28;20207;-83
2022/10/20 05:26:42;;;;;;;7.37;6.20;;;;;;;3.17;92.80;101243.69;4986732;28;20567;-82
2022/10/20 05:29:10;;;;;;;6.60;5.13;;;;;;;3.17;93.47;101246.31;4979877;28;20208;-83
2022/10/20 05:31:39;;;;;;;8.83;5.80;;;;;;;3.15;93.05;101242.84;4990123;28;20233;-81
2022/10/20 05:34:07;;;;;;;7.10;6.40;;;;;;;3.16;93.34;101235.81;4989284;28;20219;-82
2022/10/20 05:36:34;;;;;;;8.20;6.27;;;;;;;3.16;93.07;101236.69;4998841;28;20211;-80
2022/10/20 05:39:00;;;;;;;9.40;6.33;;;;;;;3.17;93.90;101246.31;4997846;28;20214;-81
2022/10/20 05:41:30;;;;;;;7.87;5.90;;;;;;;3.19;93.49;101246.28;4995696;28;20228;-82
2022/10/20 05:44:16;;;;;;;8.40;6.63;;;;;;;3.17;94.18;101235.78;4994756;28;20227;-83
2022/10/20 05:46:42;;;;;;;7.10;5.60;;;;;;;3.18;94.15;101231.38;4993042;28;20254;-81
2022/10/20 05:49:14;;;;;;;9.20;5.60;;;;;;;3.18;93.54;101232.25;4995939;28;20219;-81
2022/10/20 05:51:40;;;;;;;8.87;5.87;;;;;;;3.18;94.41;101232.25;4994398;28;20250;-81
2022/10/20 05:54:07;;;;;;;8.00;5.80;;;;;;;3.19;93.76;101239.25;4998588;28;20212;-83
2022/10/20 05:56:35;;;;;;;7.10;5.23;;;;;;;3.17;94.08;101235.78;4991696;28;20207;-84
2022/10/20 05:59:01;;;;;;;7.47;5.43;;;;;;;3.17;94.07;101237.56;4992865;28;20216;-80
2022/10/20 06:01:38;;;;;;;8.63;6.07;;;;;;;3.14;93.90;101244.63;4998257;28;20730;-82
2022/10/20 06:04:07;;;;;;;8.07;5.93;;;;;;;3.15;94.16;101242.84;4999743;28;20323;-83
2022/10/20 06:06:34;;;;;;;6.97;5.70;;;;;;;3.14;94.34;101233.22;4991153;28;20212;-81
2022/10/20 06:09:00;;;;;;;8.67;5.80;;;;;;;3.16;94.79;101243.72;4990340;28;20204;-83
2022/10/20 06:11:27;;;;;;;10.57;5.77;;;;;;;3.15;94.58;101232.31;4992745;28;20717;-83
2022/10/20 06:13:56;;;;;;;7.13;5.57;;;;;;;3.16;94.57;101235.81;4988724;28;20207;-83
2022/10/20 06:16:24;;;;;;;8.20;5.20;;;;;;;3.17;95.07;101230.53;4990196;28;20277;-82
2022/10/20 06:18:52;;;;;;;7.33;5.40;;;;;;;3.19;94.95;101233.13;4986495;28;20219;-82
2022/10/20 06:21:20;;;;;;;9.07;5.63;;;;;;;3.20;95.39;101230.47;4983324;28;20315;-80
2022/10/20 06:23:46;;;;;;;8.90;5.33;;;;;;;3.22;94.57;101228.66;4991131;28;20259;-81
2022/10/20 06:26:16;;;;;;;7.27;5.53;;;;;;;3.25;95.52;101222.44;4987538;28;20204;-80
2022/10/20 06:28:43;;;;;;;8.67;5.63;;;;;;;3.27;94.96;101225.88;4982898;28;20227;-82
2022/10/20 06:31:13;;;;;;;7.23;5.93;;;;;;;3.30;95.18;101225.81;4980530;28;20266;-81
2022/10/20 06:33:40;;;;;;;7.77;6.87;;;;;;;3.34;95.59;101230.13;4982140;28;20204;-81
2022/10/20 06:36:07;;;;;;;9.70;6.30;;;;;;;3.36;96.20;101231.81;4984550;28;20208;-81
2022/10/20 06:38:34;;;;;;;7.80;5.37;;;;;;;3.40;96.35;101243.97;4982302;28;20241;-79
2022/10/20 06:41:01;;;;;;;11.47;5.83;;;;;;;3.43;96.63;101243.91;4982743;28;20251;-83
2022/10/20 06:43:27;;;;;;;10.60;6.20;;;;;;;3.48;96.02;101235.91;4984056;28;20232;-83
2022/10/20 06:45:55;;;;;;;8.87;6.33;;;;;;;3.52;96.50;101236.69;4983671;28;20212;-79
2022/10/20 06:48:24;;;;;;;8.50;5.53;;;;;;;3.56;96.76;101236.59;4987863;28;20215;-79
2022/10/20 06:50:55;;;;;;;8.87;5.90;;;;;;;3.60;96.40;101242.63;4983998;28;20235;-81
2022/10/20 06:53:22;;;;;;;9.77;5.70;;;;;;;3.61;96.59;101234.69;4986621;28;20939;-79
2022/10/20 06:55:55;;;;;;;8.27;5.30;;;;;;;3.65;97.19;101225.81;4987592;28;20818;-82
2022/10/20 06:58:21;;;;;;;7.93;5.23;;;;;;;3.68;96.88;101219.59;4987045;28;20295;-80
2022/10/20 07:00:48;;;;;;;7.67;5.53;;;;;;;3.69;97.42;101208.16;4985514;28;20222;-81
2022/10/20 07:03:14;;;;;;;7.67;5.60;;;;;;;3.72;97.07;101208.09;4990807;28;20240;-82
2022/10/20 07:05:42;;;;;;;9.67;6.43;;;;;;;3.76;97.29;101213.19;4993306;28;20204;-81
2022/10/20 07:08:09;;;;;;;10.13;7.23;;;;;;;3.79;97.08;101204.34;4992785;28;20200;-82
2022/10/20 07:10:35;;;;;;;10.80;6.57;;;;;;;3.83;97.59;101206.00;4990793;28;20235;-83
2022/10/20 07:13:01;;;;;;;9.23;6.20;;;;;;;3.88;97.73;101206.75;4991097;28;20427;-83
2022/10/20 07:15:28;;;;;;;8.77;6.50;;;;;;;3.92;97.65;101199.66;4992929;28;20208;-83
2022/10/20 07:17:54;;;;;;;13.80;6.67;;;;;;;3.98;97.98;101187.16;4987131;28;20867;-84
2022/10/20 07:20:21;;;;;;;10.33;7.53;;;;;;;4.07;98.21;101181.63;4990970;28;20725;-83
2022/10/20 07:22:49;;;;;;;10.10;7.57;;;;;;;4.16;99.11;101175.22;4994669;28;20227;-82
2022/10/20 07:25:15;;;;;;;10.00;7.67;;;;;;;4.26;98.92;101178.47;4989864;28;20214;-81
2022/10/20 07:27:42;;;;;;;12.17;7.17;;;;;;;4.37;99.30;101176.38;4990932;28;20200;-83
2022/10/20 07:30:08;;;;;;;11.20;8.33;;;;;;;4.49;100.00;101170.72;4989136;28;20219;-82
2022/10/20 07:32:35;;;;;;;13.17;8.17;;;;;;;4.62;100.00;101181.81;5001359;28;20685;-81
2022/10/20 07:35:02;;;;;;;11.37;7.80;;;;;;;4.74;100.00;101170.84;5001826;28;20208;-81
2022/10/20 07:37:28;;;;;;;11.77;7.53;;;;;;;4.86;100.00;101166.06;4993297;28;20640;-83
2022/10/20 07:39:56;;;;;;;9.90;7.27;;;;;;;4.96;100.00;101161.34;4996797;28;20612;-83
2022/10/20 07:42:22;;;;;;;10.27;7.20;;;;;;;5.05;100.00;101162.81;4991195;28;20301;-82
2022/10/20 07:44:49;;;;;;;10.57;7.43;;;;;;;5.15;100.00;101169.56;5000447;28;20230;-82
2022/10/20 07:47:15;;;;;;;10.27;7.43;;;;;;;5.25;100.00;101165.69;4996619;28;20212;-84
2022/10/20 07:49:42;;;;;;;13.37;8.17;;;;;;;5.35;100.00;101167.13;5000553;28;20223;-82
2022/10/20 07:52:08;;;;;;;8.63;7.47;;;;;;;5.44;100.00;101169.44;4995563;28;20208;-83
2022/10/20 07:54:35;;;;;;;11.70;7.47;;;;;;;5.53;100.00;101153.28;4999114;28;20215;-82
2022/10/20 07:57:02;;;;;;;9.00;6.27;;;;;;;5.63;100.00;101159.09;4999673;28;20203;-82
2022/10/20 07:59:29;;;;;;;10.53;7.57;;;;;;;5.70;100.00;101151.81;4994619;28;20215;-82
2022/10/20 08:01:56;;;;;;;10.60;7.70;;;;;;;5.79;100.00;101151.50;5000945;28;20326;-83
2022/10/20 08:04:22;;;;;;;9.50;7.37;;;;;;;5.89;100.00;101142.34;4999781;28;20227;-83
2022/10/20 08:06:48;;;;;;;8.80;7.00;;;;;;;5.99;99.81;101142.88;5001361;28;20200;-82
2022/10/20 08:09:15;;;;;;;10.40;6.93;;;;;;;6.07;99.58;101146.97;4993211;28;20206;-83
2022/10/20 08:11:41;;;;;;;8.13;7.00;;;;;;;6.18;99.83;101151.84;4999814;28;20235;-83
2022/10/20 08:14:09;;;;;;;9.57;7.13;;;;;;;6.28;99.44;101159.38;5006093;28;20204;-82
2022/10/20 08:16:36;;;;;;;9.43;7.77;;;;;;;6.39;98.87;101153.69;4997094;28;20226;-81
2022/10/20 08:19:02;;;;;;;12.27;7.73;;;;;;;6.49;98.37;101148.91;4996414;28;20219;-82
2022/10/20 08:21:29;;;;;;;10.43;7.20;;;;;;;6.57;97.78;101155.63;4995202;28;20235;-82
2022/10/20 08:23:55;;;;;;;9.70;6.70;;;;;;;6.66;97.55;101148.25;4997237;28;20606;-83
2022/10/20 08:26:23;;;;;;;10.83;7.90;;;;;;;6.72;97.03;101146.22;4996713;28;20211;-84
2022/10/20 08:28:52;;;;;;;9.53;7.67;;;;;;;6.81;96.55;101142.34;4999476;28;20206;-85
2022/10/20 08:31:20;;;;;;;7.77;7.07;;;;;;;6.89;96.13;101135.84;4993040;28;20228;-85
2022/10/20 08:33:47;;;;;;;9.40;6.83;;;;;;;6.94;94.97;101133.88;4996625;28;20302;-84
2022/10/20 08:36:14;;;;;;;8.63;7.40;;;;;;;6.99;95.49;101135.47;4997375;28;20204;-83
2022/10/20 08:38:42;;;;;;;10.03;7.60;;;;;;;7.02;94.78;101133.53;4991952;28;20207;-85
2022/10/20 08:41:16;;;;;;;14.37;7.20;;;;;;;7.11;94.51;101141.13;4991661;28;20797;-83
2022/10/20 08:43:43;;;;;;;11.60;7.37;;;;;;;7.17;93.80;101130.25;4988002;28;20254;-87
2022/10/20 08:46:14;;;;;;;8.83;6.80;;;;;;;7.28;93.87;101128.03;4995721;28;20215;-86
2022/10/20 08:48:43;;;;;;;9.10;7.07;;;;;;;7.41;93.40;101124.84;4991458;28;20203;-82
2022/10/20 08:51:17;;;;;;;9.87;6.57;;;;;;;7.48;92.39;101119.25;4987236;28;20223;-84
2022/10/20 08:53:45;;;;;;;8.27;7.40;;;;;;;7.57;91.97;101110.00;4991788;28;20211;-83
2022/10/20 08:56:13;;;;;;;8.63;7.33;;;;;;;7.64;91.68;101109.69;4994055;28;20812;-85
2022/10/20 08:58:42;;;;;;;8.10;7.13;;;;;;;7.72;91.53;101104.03;4993859;28;20245;-84
2022/10/20 09:01:19;;;;;;;9.43;7.43;;;;;;;7.80;90.78;101096.63;4995388;28;20231;-85
2022/10/20 09:03:52;;;;;;;9.47;6.90;;;;;;;7.93;91.34;101107.53;4991762;28;20226;-84
2022/10/20 09:06:18;;;;;;;8.27;7.30;;;;;;;8.02;90.97;101110.63;4993389;28;20211;-84
2022/10/20 09:08:47;;;;;;;7.60;6.80;;;;;;;8.14;90.92;101106.53;4994324;28;20219;-85
2022/10/20 09:11:17;;;;;;;7.93;6.40;;;;;;;8.21;90.01;101104.50;4991715;28;20286;-84
2022/10/20 09:13:43;;;;;;;17.83;7.53;;;;;;;8.26;89.09;101095.34;4988193;28;20211;-84
2022/10/20 09:16:26;;;;;;;32.27;8.20;;;;;;;8.32;89.82;101096.91;4993192;28;20199;-84
2022/10/20 09:18:57;;;;;;;8.50;6.73;;;;;;;8.38;88.58;101093.97;4995392;28;20712;-84
2022/10/20 09:21:24;;;;;;;7.00;6.30;;;;;;;8.43;88.00;101096.38;4997767;28;20222;-85
2022/10/20 09:23:54;;;;;;;7.60;6.00;;;;;;;8.49;87.38;101094.31;4995054;28;20227;-85
2022/10/20 09:26:22;;;;;;;7.10;5.93;;;;;;;8.56;86.98;101095.75;4980706;28;20227;-85
2022/10/20 09:28:51;;;;;;;6.27;5.53;;;;;;;8.64;86.30;101098.88;4985491;28;20206;-85
2022/10/20 09:31:22;;;;;;;9.33;5.80;;;;;;;8.70;85.69;101103.06;4988398;28;20223;-85
2022/10/20 09:33:49;;;;;;;6.33;5.53;;;;;;;8.78;85.67;101095.56;4984990;28;20203;-85
2022/10/20 09:36:20;;;;;;;8.43;6.30;;;;;;;8.88;85.48;101095.97;4986270;28;20212;-84
2022/10/20 09:38:49;;;;;;;6.27;5.67;;;;;;;8.99;84.65;101093.63;4991353;28;20246;-86
2022/10/20 09:41:19;;;;;;;8.10;6.10;;;;;;;9.10;83.93;101090.47;4987614;28;20601;-85
2022/10/20 09:43:51;;;;;;;6.60;5.30;;;;;;;9.17;83.50;101087.41;4995739;28;20219;-85
2022/10/20 09:46:21;;;;;;;8.07;5.83;;;;;;;9.25;83.23;101077.25;4985481;28;20680;-86
2022/10/20 09:48:49;;;;;;;7.37;5.33;;;;;;;9.34;82.83;101073.25;4990012;28;20234;-80
2022/10/20 09:51:21;;;;;;;9.13;5.47;;;;;;;9.39;82.58;101074.75;4993045;28;20690;-84
2022/10/20 09:53:54;;;;;;;6.03;5.30;;;;;;;9.46;82.32;101062.00;4992815;28;20606;-83
2022/10/20 09:56:25;;;;;;;7.77;4.90;;;;;;;9.51;81.19;101059.94;4989688;28;20188;-83
2022/10/20 09:58:52;;;;;;;6.87;5.13;;;;;;;9.56;80.85;101047.28;4991121;28;20214;-84
2022/10/20 10:01:19;;;;;;;11.63;5.93;;;;;;;9.62;80.09;101048.75;4988461;28;20242;-84
2022/10/20 10:03:47;;;;;;;10.30;5.10;;;;;;;9.69;79.18;101047.47;4984401;28;20600;-84
2022/10/20 10:06:28;;;;;;;6.10;5.00;;;;;;;9.72;78.60;101045.53;4984558;28;20199;-85
2022/10/20 10:08:56;;;;;;;5.97;5.13;;;;;;;9.77;78.90;101039.09;4992964;28;20888;-84
2022/10/20 10:11:27;;;;;;;6.97;5.23;;;;;;;9.84;78.22;101025.41;4990978;28;20228;-84
2022/10/20 10:13:54;;;;;;;7.33;5.43;;;;;;;9.91;78.53;101012.59;4987572;28;20208;-84
2022/10/20 10:16:24;;;;;;;6.50;5.83;;;;;;;9.98;78.38;101012.19;4989173;28;20287;-85
2022/10/20 10:18:59;;;;;;;5.60;4.83;;;;;;;10.05;78.13;101010.03;4990560;28;20236;-83
2022/10/20 10:21:28;;;;;;;6.80;5.40;;;;;;;10.12;78.09;101016.75;4999491;28;20279;-83
2022/10/20 10:23:57;;;;;;;6.40;5.10;;;;;;;10.20;78.19;101017.22;4994529;28;20233;-85
2022/10/20 10:26:44;;;;;;;7.73;5.83;;;;;;;10.27;78.10;101013.25;4989041;28;20213;-84
2022/10/20 10:29:19;;;;;;;5.63;4.80;;;;;;;10.33;78.10;101004.94;4993911;28;20209;-82
2022/10/20 10:31:51;;;;;;;6.03;5.23;;;;;;;10.37;77.74;101001.16;4995010;28;20243;-84
2022/10/20 10:34:32;;;;;;;6.33;5.40;;;;;;;10.40;77.22;100981.47;4990322;28;20281;-86
2022/10/20 10:37:00;;;;;;;6.57;5.70;;;;;;;10.46;77.77;100982.94;4993915;28;20205;-84
2022/10/20 10:39:29;;;;;;;7.33;6.30;;;;;;;10.50;77.22;100974.69;4996441;28;20209;-85
2022/10/20 10:42:07;;;;;;;6.83;5.60;;;;;;;10.55;77.05;100969.97;4995383;28;20223;-85
2022/10/20 10:44:45;;;;;;;9.53;5.63;;;;;;;10.60;76.82;100970.53;4992520;28;20224;-83
2022/10/20 10:47:30;;;;;;;6.30;5.70;;;;;;;10.62;76.49;100965.97;4990550;28;20207;-83
2022/10/20 10:50:03;;;;;;;7.63;5.87;;;;;;;10.62;76.16;100952.66;4992091;28;20210;-84
2022/10/20 10:52:40;;;;;;;6.93;5.80;;;;;;;10.64;76.14;100956.09;4989536;28;20251;-83
2022/10/20 10:55:16;;;;;;;7.33;6.30;;;;;;;10.69;76.52;100954.00;4992565;28;20207;-83
2022/10/20 10:57:54;;;;;;;6.93;5.97;;;;;;;10.79;77.01;100954.31;4988390;28;20215;-84
2022/10/20 11:00:36;;;;;;;6.80;5.97;;;;;;;10.91;77.59;100940.28;4991644;28;20249;-84
2022/10/20 11:03:15;;;;;;;8.90;6.20;;;;;;;11.01;77.57;100937.91;4991091;28;20207;-83
2022/10/20 11:06:19;;;;;;;8.23;6.20;;;;;;;11.13;77.00;100937.16;4992458;28;20555;-84
2022/10/20 11:09:12;;;;;;;7.53;6.83;;;;;;;11.21;76.54;100934.03;4976290;28;20210;-86
2022/10/20 11:11:51;;;;;;;7.27;6.37;;;;;;;11.26;76.29;100929.28;4989414;28;20783;-83
2022/10/20 11:14:33;;;;;;;7.47;5.73;;;;;;;11.31;76.31;100917.34;4996255;28;20660;-84
2022/10/20 11:17:14;;;;;;;6.80;5.20;;;;;;;11.36;75.68;100919.75;4998566;28;20206;-84
2022/10/20 11:19:58;;;;;;;7.47;5.63;;;;;;;11.39;75.60;100914.22;4992608;28;20579;-85
2022/10/20 11:22:37;;;;;;;6.23;5.63;;;;;;;11.44;75.79;100909.47;4990445;28;20209;-84
2022/10/20 11:25:16;;;;;;;7.80;6.47;;;;;;;11.54;76.20;100910.59;4989161;28;20227;-83
2022/10/20 11:27:43;;;;;;;7.07;5.27;;;;;;;11.67;76.50;100908.00;4991492;28;20205;-85
2022/10/20 11:30:17;;;;;;;7.60;5.67;;;;;;;11.73;75.48;100895.13;4994300;28;20265;-83
2022/10/20 11:32:49;;;;;;;6.73;4.93;;;;;;;11.78;75.19;100887.72;4986185;28;20232;-82
2022/10/20 11:35:24;;;;;;;6.07;5.23;;;;;;;11.85;74.90;100890.84;4988000;28;20712;-86
2022/10/20 11:37:56;;;;;;;5.33;4.80;;;;;;;11.93;75.29;100893.03;4995364;28;20821;-82
2022/10/20 11:40:27;;;;;;;6.50;4.93;;;;;;;12.01;74.93;100886.22;4993690;28;20222;-82
2022/10/20 11:43:02;;;;;;;7.33;5.13;;;;;;;12.06;74.09;100877.91;4994847;28;20701;-85